EDNY

Friedrichshafen Airport

Friedrichshafen, Germany
TAF EDNY 231700Z 2318/2418 VRB03KT 9999 SCT040 PROB30 TEMPO 2318/2323 27015G25KT TSRA SCT030CB BKN045 BECMG 2408/2410 24006KT
Issued Valid From Valid To
Apr-23 @ 17:00 UTC
(6 hours ago)
Apr-23 @ 18:00 UTC
(5 hours ago)
Apr-24 @ 18:00 UTC
(in 19 hours)
Apr-23 @ 18:00 to Apr-24 @ 08:00
TAF EDNY 231700Z 2318/2418 VRB03KT 9999 SCT040
Wind Visibility Clouds
Variable at 3 knots 10,000+ meters
  • Scattered at 4,000' AGL
Temporary  (Probability 30%) Apr-23 @ 18:00 to Apr-23 @ 23:00
PROB30 TEMPO 2318/2323 27015G25KT TSRA SCT030CB BKN045
Wind Clouds Conditions
270° at 15 knots
 Gusting to 25 knots
  • Scattered at 3,000' AGL
  • Broken at 4,500' AGL
  • Thunderstorm
  • Rain
Becoming Apr-24 @ 08:00 to Apr-24 @ 18:00
BECMG 2408/2410 24006KT
Wind Visibility Clouds
240° at 6 knots 10,000+ meters
  • Scattered at 4,000' AGL
TAF EDNY 231700Z 2318/2418 VRB03KT 9999 SCT040 PROB30 TEMPO 2318/2323 27015G25KT TSRA SCT030CB BKN045 BECMG 2408/2410 24006KT
Issued Apr-23 @ 17:00 UTC
(6 hours ago)
Valid From Apr-23 @ 18:00 UTC
(5 hours ago)
Valid To Apr-24 @ 18:00 UTC
(in 19 hours)
Apr-23 @ 18:00 - Apr-24 @ 08:00
Wind Visibility
Variable at 3 knots 10,000+ meters
Clouds
  • Scattered at 4,000' AGL
Probability 30% Temporary Apr-23 @ 18:00 - Apr-23 @ 23:00
Wind
270° at 15 knots
 Gusting to 25 knots
Clouds
  • Scattered at 3,000' AGL
  • Broken at 4,500' AGL
Conditions
  • Thunderstorm
  • Rain
Becoming Apr-24 @ 08:00 - Apr-24 @ 18:00
Wind Visibility
240° at 6 knots 10,000+ meters
Clouds
  • Scattered at 4,000' AGL